Wetterdaten: Woche 16.02.09 - 22.02.09 (KW8)
Datum Zeit Temperatur Luftfeuchte Luftdruck Niederschlag Wind Richtung Sonnenschein Solar Taupunkt Windchill Windben
16.02.2009 00:00 -3.1 C 80 % 1027.8 hPa 0.0 l/m 1.7 km/h (1 Bft) O-SO 0.00 h 0 W/m -6.0 C -3.1 C 3.2 km/h (1 Bft)
16.02.2009 01:00 -3.4 C 82 % 1027.2 hPa 0.0 l/m 2.9 km/h (1 Bft) O-SO 0.00 h 0 W/m -6.1 C -3.7 C 4.1 km/h (1 Bft)
16.02.2009 02:00 -3.6 C 84 % 1027.0 hPa 0.0 l/m 1.0 km/h (0 Bft) O 0.00 h 0 W/m -5.8 C -3.6 C 1.5 km/h (1 Bft)
16.02.2009 03:00 -3.8 C 85 % 1026.6 hPa 0.0 l/m 0.5 km/h (0 Bft) O 0.00 h 0 W/m -5.9 C -3.8 C 1.1 km/h (1 Bft)
16.02.2009 04:00 -3.9 C 85 % 1026.4 hPa 0.0 l/m 3.5 km/h (1 Bft) O 0.00 h 0 W/m -6.0 C -4.3 C 4.6 km/h (1 Bft)
16.02.2009 05:00 -3.5 C 85 % 1026.6 hPa 0.0 l/m 2.3 km/h (1 Bft) O 0.00 h 0 W/m -5.6 C -3.6 C 4.1 km/h (1 Bft)
16.02.2009 06:00 -3.6 C 84 % 1026.4 hPa 0.0 l/m 0.7 km/h (0 Bft) S 0.00 h 0 W/m -5.8 C -3.6 C 2.1 km/h (1 Bft)
16.02.2009 07:00 -3.5 C 84 % 1026.2 hPa 0.0 l/m 1.0 km/h (0 Bft) SW 0.30 h 18 W/m -5.8 C -3.5 C 3.0 km/h (1 Bft)
16.02.2009 08:00 -2.9 C 82 % 1026.2 hPa 0.0 l/m 1.5 km/h (1 Bft) SW 0.38 h 75 W/m -5.6 C -3.0 C 3.6 km/h (1 Bft)
16.02.2009 09:00 -2.1 C 79 % 1026.1 hPa 0.0 l/m 2.9 km/h (1 Bft) S 0.10 h 126 W/m -5.3 C -2.4 C 5.8 km/h (2 Bft)
16.02.2009 10:00 -1.0 C 75 % 1025.7 hPa 0.0 l/m 3.3 km/h (1 Bft) S-SW 0.37 h 193 W/m -4.8 C -1.5 C 6.3 km/h (2 Bft)
16.02.2009 11:00 -0.3 C 72 % 1025.7 hPa 0.0 l/m 3.7 km/h (1 Bft) S 0.00 h 187 W/m -4.7 C -1.1 C 6.5 km/h (2 Bft)
16.02.2009 12:00 -0.3 C 80 % 1025.6 hPa 0.0 l/m 2.1 km/h (1 Bft) S-SO 0.00 h 202 W/m -3.4 C -0.4 C 4.5 km/h (1 Bft)
16.02.2009 13:00 -0.8 C 87 % 1025.5 hPa 0.2 l/m 1.5 km/h (1 Bft) W-SW 0.00 h 140 W/m -2.8 C -0.8 C 3.3 km/h (1 Bft)
16.02.2009 14:00 -0.5 C 90 % 1025.3 hPa 0.2 l/m 1.6 km/h (1 Bft) S-SO 0.00 h 150 W/m -2.0 C -0.5 C 3.5 km/h (1 Bft)
16.02.2009 15:00 0.2 C 89 % 1025.0 hPa 0.0 l/m 3.4 km/h (1 Bft) SW 0.72 h 190 W/m -1.3 C -0.3 C 6.2 km/h (2 Bft)
16.02.2009 16:00 0.4 C 83 % 1025.1 hPa 0.0 l/m 6.2 km/h (2 Bft) W-SW 0.00 h 56 W/m -2.1 C -1.4 C 9.1 km/h (2 Bft)
16.02.2009 17:00 0.3 C 83 % 1025.1 hPa 0.0 l/m 4.0 km/h (1 Bft) W-SW 0.15 h 24 W/m -2.3 C -0.6 C 6.5 km/h (2 Bft)
16.02.2009 18:00 0.0 C 85 % 1025.8 hPa 0.0 l/m 0.8 km/h (0 Bft) SW 0.00 h 0 W/m -2.2 C 0.0 C 2.3 km/h (1 Bft)
16.02.2009 19:00 0.2 C 85 % 1025.9 hPa 0.0 l/m 1.5 km/h (1 Bft) S-SW 0.00 h 0 W/m -2.1 C 0.1 C 3.6 km/h (1 Bft)
16.02.2009 20:00 0.2 C 86 % 1025.7 hPa 0.0 l/m 0.7 km/h (0 Bft) W-SW 0.00 h 0 W/m -1.9 C 0.2 C 2.0 km/h (1 Bft)
16.02.2009 21:00 0.0 C 86 % 1025.4 hPa 0.0 l/m 1.8 km/h (1 Bft) W-SW 0.00 h 0 W/m -2.0 C 0.0 C 3.7 km/h (1 Bft)
16.02.2009 22:00 -0.1 C 87 % 1024.9 hPa 0.0 l/m 2.7 km/h (1 Bft) S-SW 0.00 h 0 W/m -2.0 C -0.2 C 4.7 km/h (1 Bft)
16.02.2009 23:00 0.1 C 87 % 1024.6 hPa 0.0 l/m 2.9 km/h (1 Bft) S-SW 0.00 h 0 W/m -1.8 C -0.1 C 4.8 km/h (1 Bft)
17.02.2009 00:00 -0.1 C 88 % 1024.4 hPa 0.0 l/m 2.0 km/h (1 Bft) S-SW 0.00 h 0 W/m -1.9 C -0.1 C 4.1 km/h (1 Bft)
17.02.2009 01:00 -0.4 C 93 % 1024.2 hPa 0.4 l/m 2.3 km/h (1 Bft) S-SW 0.00 h 0 W/m -1.4 C -0.5 C 4.8 km/h (1 Bft)
17.02.2009 02:00 -0.4 C 95 % 1023.8 hPa 0.0 l/m 2.7 km/h (1 Bft) S-SW 0.00 h 0 W/m -1.1 C -0.6 C 5.2 km/h (1 Bft)
17.02.2009 03:00 -0.3 C 96 % 1023.0 hPa 0.0 l/m 3.0 km/h (1 Bft) S-SW 0.00 h 0 W/m -0.9 C -0.3 C 5.1 km/h (1 Bft)
17.02.2009 04:00 -0.1 C 97 % 1022.2 hPa 0.2 l/m 2.5 km/h (1 Bft) S-SW 0.00 h 0 W/m -0.6 C -0.2 C 4.8 km/h (1 Bft)
17.02.2009 05:00 0.1 C 97 % 1021.7 hPa 0.2 l/m 2.9 km/h (1 Bft) SW 0.00 h 0 W/m -0.3 C -0.1 C 5.3 km/h (1 Bft)
17.02.2009 06:00 0.2 C 97 % 1021.0 hPa 0.6 l/m 2.8 km/h (1 Bft) S-SW 0.00 h 0 W/m -0.2 C -0.0 C 5.7 km/h (1 Bft)
17.02.2009 07:00 0.3 C 98 % 1020.8 hPa 1.0 l/m 1.7 km/h (1 Bft) S-SW 0.00 h 0 W/m 0.0 C 0.3 C 4.3 km/h (1 Bft)
17.02.2009 08:00 0.4 C 99 % 1020.5 hPa 0.4 l/m 1.0 km/h (0 Bft) S-SW 0.00 h 11 W/m 0.2 C 0.4 C 2.7 km/h (1 Bft)
17.02.2009 09:00 0.6 C 99 % 1020.3 hPa 0.4 l/m 1.0 km/h (0 Bft) S 0.00 h 28 W/m 0.5 C 0.6 C 2.8 km/h (1 Bft)
17.02.2009 10:00 1.3 C 98 % 1019.8 hPa 0.2 l/m 1.3 km/h (1 Bft) S 0.00 h 61 W/m 1.1 C 1.3 C 3.0 km/h (1 Bft)
17.02.2009 11:00 1.9 C 97 % 1019.6 hPa 0.0 l/m 4.1 km/h (1 Bft) W-NW 0.00 h 75 W/m 1.5 C 1.1 C 7.1 km/h (2 Bft)
17.02.2009 12:00 2.1 C 96 % 1019.5 hPa 0.2 l/m 2.7 km/h (1 Bft) W 0.00 h 69 W/m 1.6 C 1.7 C 5.0 km/h (1 Bft)
17.02.2009 13:00 2.2 C 96 % 1019.2 hPa 0.0 l/m 4.1 km/h (1 Bft) W 0.00 h 69 W/m 1.7 C 1.5 C 7.0 km/h (2 Bft)
17.02.2009 14:00 2.2 C 95 % 1018.6 hPa 0.0 l/m 8.5 km/h (2 Bft) W 0.00 h 68 W/m 1.5 C -0.0 C 14.1 km/h (3 Bft)
17.02.2009 15:00 2.3 C 93 % 1018.7 hPa 0.0 l/m 7.7 km/h (2 Bft) W 0.00 h 26 W/m 1.3 C 0.2 C 12.0 km/h (2 Bft)
17.02.2009 16:00 2.3 C 93 % 1018.6 hPa 0.0 l/m 7.5 km/h (2 Bft) W 0.00 h 17 W/m 1.3 C 0.4 C 12.1 km/h (2 Bft)
17.02.2009 17:00 2.5 C 92 % 1019.1 hPa 0.0 l/m 6.6 km/h (2 Bft) W-NW 0.00 h 6 W/m 1.3 C 0.8 C 11.2 km/h (2 Bft)
17.02.2009 18:00 2.4 C 92 % 1019.3 hPa 0.0 l/m 3.8 km/h (1 Bft) W 0.00 h 0 W/m 1.3 C 1.7 C 6.5 km/h (2 Bft)
17.02.2009 19:00 2.4 C 92 % 1019.2 hPa 0.0 l/m 2.6 km/h (1 Bft) W-NW 0.00 h 0 W/m 1.2 C 2.1 C 5.0 km/h (1 Bft)
17.02.2009 20:00 2.4 C 92 % 1019.4 hPa 0.0 l/m 2.8 km/h (1 Bft) W 0.00 h 0 W/m 1.3 C 2.0 C 5.5 km/h (1 Bft)
17.02.2009 21:00 2.3 C 92 % 1019.8 hPa 0.0 l/m 0.7 km/h (0 Bft) SO 0.00 h 0 W/m 1.2 C 2.3 C 2.0 km/h (1 Bft)
17.02.2009 22:00 2.0 C 92 % 1020.9 hPa 0.0 l/m 3.6 km/h (1 Bft) N-NO 0.00 h 0 W/m 0.7 C 1.2 C 8.1 km/h (2 Bft)
17.02.2009 23:00 0.8 C 82 % 1022.4 hPa 0.0 l/m 5.4 km/h (1 Bft) O 0.00 h 0 W/m -2.0 C -0.6 C 10.6 km/h (2 Bft)
18.02.2009 00:00 -1.0 C 74 % 1023.6 hPa 0.0 l/m 5.8 km/h (2 Bft) O 0.00 h 0 W/m -5.1 C -2.7 C 11.0 km/h (2 Bft)
18.02.2009 01:00 -2.0 C 73 % 1024.5 hPa 0.0 l/m 3.5 km/h (1 Bft) O-NO 0.00 h 0 W/m -6.2 C -2.8 C 8.1 km/h (2 Bft)
18.02.2009 02:00 -3.3 C 74 % 1025.2 hPa 0.0 l/m 4.0 km/h (1 Bft) N-NO 0.00 h 0 W/m -7.3 C -4.4 C 8.9 km/h (2 Bft)
18.02.2009 03:00 -3.8 C 74 % 1025.5 hPa 0.0 l/m 2.7 km/h (1 Bft) N-NO 0.00 h 0 W/m -7.7 C -4.3 C 6.0 km/h (2 Bft)
18.02.2009 04:00 -4.5 C 74 % 1025.4 hPa 0.0 l/m 2.3 km/h (1 Bft) S-SW 0.00 h 0 W/m -8.4 C -4.8 C 4.7 km/h (1 Bft)
18.02.2009 05:00 -5.2 C 76 % 1025.6 hPa 0.0 l/m 1.4 km/h (1 Bft) O-NO 0.00 h 0 W/m -8.8 C -5.2 C 3.4 km/h (1 Bft)
18.02.2009 06:00 -5.9 C 77 % 1025.7 hPa 0.0 l/m 1.0 km/h (0 Bft) NO 0.00 h 0 W/m -9.3 C -5.9 C 3.0 km/h (1 Bft)
18.02.2009 07:00 -6.3 C 78 % 1026.0 hPa 0.0 l/m 1.0 km/h (0 Bft) O 0.33 h 20 W/m -9.5 C -6.4 C 2.6 km/h (1 Bft)
18.02.2009 08:00 -5.8 C 76 % 1026.1 hPa 0.0 l/m 1.2 km/h (1 Bft) O 0.88 h 106 W/m -9.2 C -5.9 C 2.9 km/h (1 Bft)
18.02.2009 09:00 -4.7 C 71 % 1025.9 hPa 0.0 l/m 1.9 km/h (1 Bft) N 0.85 h 195 W/m -9.1 C -5.0 C 4.5 km/h (1 Bft)
18.02.2009 10:00 -3.1 C 64 % 1025.9 hPa 0.0 l/m 3.3 km/h (1 Bft) O 1.00 h 353 W/m -9.0 C -3.9 C 6.6 km/h (2 Bft)
18.02.2009 11:00 -1.9 C 58 % 1025.8 hPa 0.0 l/m 5.0 km/h (1 Bft) O-SO 1.00 h 444 W/m -9.0 C -3.2 C 9.0 km/h (2 Bft)
18.02.2009 12:00 -1.1 C 56 % 1025.5 hPa 0.0 l/m 8.6 km/h (2 Bft) O-SO 1.00 h 503 W/m -8.7 C -4.0 C 13.4 km/h (3 Bft)
18.02.2009 13:00 -0.4 C 55 % 1025.0 hPa 0.0 l/m 5.1 km/h (1 Bft) O-SO 1.00 h 482 W/m -8.3 C -1.8 C 9.4 km/h (2 Bft)
18.02.2009 14:00 0.3 C 54 % 1024.7 hPa 0.0 l/m 4.6 km/h (1 Bft) N-NO 1.00 h 408 W/m -7.9 C -0.7 C 9.5 km/h (2 Bft)
18.02.2009 15:00 0.6 C 52 % 1024.7 hPa 0.0 l/m 4.3 km/h (1 Bft) N-NO 1.00 h 298 W/m -8.2 C -0.4 C 8.1 km/h (2 Bft)
18.02.2009 16:00 0.2 C 52 % 1024.6 hPa 0.0 l/m 2.5 km/h (1 Bft) O 1.00 h 164 W/m -8.6 C -0.2 C 5.6 km/h (1 Bft)
18.02.2009 17:00 -1.1 C 57 % 1025.0 hPa 0.0 l/m 3.6 km/h (1 Bft) O-SO 0.43 h 36 W/m -8.6 C -1.9 C 6.3 km/h (2 Bft)
18.02.2009 18:00 -2.5 C 63 % 1025.5 hPa 0.0 l/m 2.4 km/h (1 Bft) O-SO 0.00 h 0 W/m -8.6 C -2.7 C 4.2 km/h (1 Bft)
18.02.2009 19:00 -3.5 C 65 % 1025.9 hPa 0.0 l/m 0.3 km/h (0 Bft) O-SO 0.00 h 0 W/m -9.0 C -3.5 C 1.3 km/h (1 Bft)
18.02.2009 20:00 -4.2 C 69 % 1026.0 hPa 0.0 l/m 0.4 km/h (0 Bft) O-SO 0.00 h 0 W/m -9.0 C -4.2 C 1.4 km/h (1 Bft)
18.02.2009 21:00 -4.9 C 73 % 1026.1 hPa 0.0 l/m 0.3 km/h (0 Bft) O-SO 0.00 h 0 W/m -9.0 C -4.9 C 1.5 km/h (1 Bft)
18.02.2009 22:00 -5.4 C 73 % 1026.1 hPa 0.0 l/m 1.5 km/h (1 Bft) N 0.00 h 0 W/m -9.4 C -5.5 C 3.7 km/h (1 Bft)
18.02.2009 23:00 -6.5 C 76 % 1026.1 hPa 0.0 l/m 2.0 km/h (1 Bft) SO 0.00 h 0 W/m -10.0 C -6.7 C 3.7 km/h (1 Bft)
19.02.2009 00:00 -7.2 C 79 % 1026.2 hPa 0.0 l/m 2.0 km/h (1 Bft) SO 0.00 h 0 W/m -10.1 C -7.3 C 3.5 km/h (1 Bft)
19.02.2009 01:00 -7.7 C 81 % 1026.3 hPa 0.0 l/m 3.0 km/h (1 Bft) O-SO 0.00 h 0 W/m -10.4 C -7.8 C 4.2 km/h (1 Bft)
19.02.2009 02:00 -8.3 C 83 % 1026.3 hPa 0.0 l/m 1.8 km/h (1 Bft) O-SO 0.00 h 0 W/m -10.7 C -8.4 C 2.8 km/h (1 Bft)
19.02.2009 03:00 -8.8 C 84 % 1026.2 hPa 0.0 l/m 1.6 km/h (1 Bft) O-SO 0.00 h 0 W/m -11.1 C -8.9 C 2.6 km/h (1 Bft)
19.02.2009 04:00 -9.0 C 85 % 1026.6 hPa 0.0 l/m 0.7 km/h (0 Bft) O-SO 0.00 h 0 W/m -11.1 C -9.0 C 1.7 km/h (1 Bft)
19.02.2009 05:00 -9.3 C 84 % 1027.2 hPa 0.0 l/m 0.6 km/h (0 Bft) O-SO 0.00 h 0 W/m -11.5 C -9.3 C 1.6 km/h (1 Bft)
19.02.2009 06:00 -9.8 C 86 % 1027.5 hPa 0.0 l/m 0.2 km/h (0 Bft) O-SO 0.00 h 0 W/m -11.6 C -9.8 C 0.5 km/h (0 Bft)
19.02.2009 07:00 -9.4 C 85 % 1028.1 hPa 0.0 l/m 2.8 km/h (1 Bft) O-SO 0.00 h 13 W/m -11.5 C -10.6 C 4.5 km/h (1 Bft)
19.02.2009 08:00 -8.9 C 83 % 1028.6 hPa 0.0 l/m 0.1 km/h (0 Bft) O-SO 0.58 h 92 W/m -11.2 C -8.9 C 0.8 km/h (0 Bft)
19.02.2009 09:00 -7.2 C 79 % 1029.0 hPa 0.0 l/m 0.5 km/h (0 Bft) O 1.00 h 238 W/m -10.2 C -7.2 C 1.9 km/h (1 Bft)
19.02.2009 10:00 -5.7 C 75 % 1028.9 hPa 0.0 l/m 0.7 km/h (0 Bft) O 0.83 h 269 W/m -9.4 C -5.8 C 2.3 km/h (1 Bft)
19.02.2009 11:00 -3.8 C 71 % 1028.8 hPa 0.0 l/m 3.0 km/h (1 Bft) NW 1.00 h 454 W/m -8.3 C -4.4 C 5.6 km/h (1 Bft)
19.02.2009 12:00 -2.1 C 65 % 1028.9 hPa 0.0 l/m 2.3 km/h (1 Bft) W-NW 1.00 h 461 W/m -7.8 C -2.4 C 4.5 km/h (1 Bft)
19.02.2009 13:00 -0.8 C 63 % 1028.6 hPa 0.0 l/m 2.0 km/h (1 Bft) W-SW 1.00 h 389 W/m -7.0 C -0.8 C 4.1 km/h (1 Bft)
19.02.2009 14:00 0.3 C 56 % 1028.4 hPa 0.0 l/m 2.0 km/h (1 Bft) W-SW 1.00 h 346 W/m -7.4 C 0.3 C 4.1 km/h (1 Bft)
19.02.2009 15:00 1.2 C 51 % 1028.4 hPa 0.0 l/m 1.8 km/h (1 Bft) SW 0.97 h 307 W/m -7.7 C 1.1 C 3.9 km/h (1 Bft)
19.02.2009 16:00 1.5 C 49 % 1028.5 hPa 0.0 l/m 1.4 km/h (1 Bft) N-NW 0.93 h 179 W/m -8.0 C 1.4 C 3.1 km/h (1 Bft)
19.02.2009 17:00 0.1 C 54 % 1029.0 hPa 0.0 l/m 1.6 km/h (1 Bft) O-SO 0.10 h 28 W/m -8.1 C -0.1 C 3.2 km/h (1 Bft)
19.02.2009 18:00 -1.7 C 65 % 1029.6 hPa 0.0 l/m 6.5 km/h (2 Bft) O-SO 0.00 h 0 W/m -7.5 C -4.1 C 8.4 km/h (2 Bft)
19.02.2009 19:00 -2.9 C 70 % 1030.3 hPa 0.0 l/m 3.4 km/h (1 Bft) SO 0.00 h 0 W/m -7.7 C -4.1 C 4.6 km/h (1 Bft)
19.02.2009 20:00 -3.8 C 73 % 1030.6 hPa 0.0 l/m 3.3 km/h (1 Bft) O-SO 0.00 h 0 W/m -7.9 C -4.5 C 4.6 km/h (1 Bft)
19.02.2009 21:00 -4.9 C 79 % 1030.8 hPa 0.0 l/m 3.0 km/h (1 Bft) O-SO 0.00 h 0 W/m -8.0 C -5.7 C 4.1 km/h (1 Bft)
19.02.2009 22:00 -5.4 C 80 % 1031.1 hPa 0.0 l/m 1.8 km/h (1 Bft) O-SO 0.00 h 0 W/m -8.3 C -5.5 C 2.8 km/h (1 Bft)
19.02.2009 23:00 -6.0 C 81 % 1031.1 hPa 0.0 l/m 3.2 km/h (1 Bft) SO 0.00 h 0 W/m -8.7 C -6.4 C 4.3 km/h (1 Bft)
20.02.2009 00:00 -6.4 C 82 % 1031.3 hPa 0.0 l/m 2.6 km/h (1 Bft) SO 0.00 h 0 W/m -8.9 C -6.4 C 4.0 km/h (1 Bft)
20.02.2009 01:00 -6.6 C 84 % 1031.7 hPa 0.0 l/m 3.5 km/h (1 Bft) SO 0.00 h 0 W/m -8.9 C -7.1 C 4.7 km/h (1 Bft)
20.02.2009 02:00 -6.4 C 84 % 1031.7 hPa 0.0 l/m 1.9 km/h (1 Bft) SO 0.00 h 0 W/m -8.7 C -6.5 C 3.4 km/h (1 Bft)
20.02.2009 03:00 -6.0 C 83 % 1031.2 hPa 0.0 l/m 1.0 km/h (0 Bft) O 0.00 h 0 W/m -8.3 C -6.0 C 1.9 km/h (1 Bft)
20.02.2009 04:00 -5.3 C 83 % 1031.0 hPa 0.0 l/m 0.4 km/h (0 Bft) O 0.00 h 0 W/m -7.7 C -5.3 C 1.1 km/h (0 Bft)
20.02.2009 05:00 -4.8 C 84 % 1031.1 hPa 0.0 l/m 0.4 km/h (0 Bft) O 0.00 h 0 W/m -7.0 C -4.8 C 1.5 km/h (1 Bft)
20.02.2009 06:00 -4.5 C 84 % 1031.2 hPa 0.0 l/m 1.6 km/h (1 Bft) S-SO 0.00 h 0 W/m -6.8 C -4.6 C 3.8 km/h (1 Bft)
20.02.2009 07:00 -4.2 C 83 % 1031.5 hPa 0.0 l/m 1.3 km/h (1 Bft) S-SO 0.00 h 7 W/m -6.7 C -4.2 C 3.4 km/h (1 Bft)
20.02.2009 08:00 -3.7 C 80 % 1031.9 hPa 0.0 l/m 1.2 km/h (1 Bft) S-SW 0.00 h 30 W/m -6.5 C -3.7 C 3.1 km/h (1 Bft)
20.02.2009 09:00 -3.0 C 77 % 1032.0 hPa 0.0 l/m 3.7 km/h (1 Bft) SW 0.00 h 83 W/m -6.4 C -3.8 C 6.4 km/h (2 Bft)
20.02.2009 10:00 -2.3 C 76 % 1032.0 hPa 0.0 l/m 2.1 km/h (1 Bft) S 0.00 h 127 W/m -6.0 C -2.4 C 4.5 km/h (1 Bft)
20.02.2009 11:00 -1.3 C 73 % 1032.2 hPa 0.0 l/m 1.8 km/h (1 Bft) S-SW 0.00 h 130 W/m -5.5 C -1.5 C 4.2 km/h (1 Bft)
20.02.2009 12:00 -0.3 C 70 % 1031.8 hPa 0.0 l/m 2.4 km/h (1 Bft) S-SW 0.00 h 177 W/m -5.1 C -0.5 C 4.9 km/h (1 Bft)
20.02.2009 13:00 0.4 C 68 % 1031.4 hPa 0.0 l/m 3.2 km/h (1 Bft) S 0.02 h 189 W/m -4.9 C 0.0 C 6.2 km/h (2 Bft)
20.02.2009 14:00 1.1 C 65 % 1031.0 hPa 0.0 l/m 3.4 km/h (1 Bft) S-SO 0.00 h 165 W/m -4.7 C 0.7 C 6.7 km/h (2 Bft)
20.02.2009 15:00 1.4 C 64 % 1030.9 hPa 0.0 l/m 4.7 km/h (1 Bft) S-SO 0.00 h 114 W/m -4.6 C 0.4 C 8.3 km/h (2 Bft)
20.02.2009 16:00 1.3 C 68 % 1030.9 hPa 0.0 l/m 3.6 km/h (1 Bft) S-SO 0.00 h 38 W/m -4.0 C 0.7 C 6.6 km/h (2 Bft)
20.02.2009 17:00 1.1 C 70 % 1030.6 hPa 0.0 l/m 2.7 km/h (1 Bft) S-SW 0.00 h 21 W/m -3.8 C 0.8 C 5.7 km/h (1 Bft)
20.02.2009 18:00 0.8 C 73 % 1031.0 hPa 0.0 l/m 3.6 km/h (1 Bft) S-SO 0.00 h 0 W/m -3.5 C 0.2 C 6.7 km/h (2 Bft)
20.02.2009 19:00 0.6 C 77 % 1031.2 hPa 0.0 l/m 2.5 km/h (1 Bft) S 0.00 h 0 W/m -3.0 C 0.3 C 5.2 km/h (1 Bft)
20.02.2009 20:00 0.5 C 78 % 1031.3 hPa 0.0 l/m 3.7 km/h (1 Bft) S-SO 0.00 h 0 W/m -2.9 C -0.2 C 6.6 km/h (2 Bft)
20.02.2009 21:00 0.6 C 77 % 1031.1 hPa 0.0 l/m 3.2 km/h (1 Bft) S 0.00 h 0 W/m -2.9 C 0.2 C 6.1 km/h (2 Bft)
20.02.2009 22:00 0.8 C 76 % 1031.3 hPa 0.0 l/m 2.2 km/h (1 Bft) S 0.00 h 0 W/m -3.0 C 0.5 C 4.6 km/h (1 Bft)
20.02.2009 23:00 0.6 C 79 % 1030.9 hPa 0.0 l/m 1.1 km/h (1 Bft) S 0.00 h 0 W/m -2.6 C 0.5 C 2.6 km/h (1 Bft)
21.02.2009 00:00 0.6 C 82 % 1030.7 hPa 0.0 l/m 1.3 km/h (1 Bft) S 0.00 h 0 W/m -2.2 C 0.6 C 3.4 km/h (1 Bft)
21.02.2009 01:00 0.5 C 85 % 1030.5 hPa 0.0 l/m 2.2 km/h (1 Bft) S 0.00 h 0 W/m -1.8 C 0.4 C 4.6 km/h (1 Bft)
21.02.2009 02:00 0.4 C 87 % 1030.3 hPa 0.0 l/m 1.8 km/h (1 Bft) S 0.00 h 0 W/m -1.5 C 0.4 C 4.5 km/h (1 Bft)
21.02.2009 03:00 0.4 C 87 % 1030.0 hPa 0.0 l/m 2.0 km/h (1 Bft) SO 0.00 h 0 W/m -1.5 C 0.2 C 3.9 km/h (1 Bft)
21.02.2009 04:00 0.4 C 88 % 1030.0 hPa 0.0 l/m 1.8 km/h (1 Bft) O 0.00 h 0 W/m -1.3 C 0.3 C 3.6 km/h (1 Bft)
21.02.2009 05:00 0.5 C 88 % 1030.2 hPa 0.0 l/m 0.1 km/h (0 Bft) O 0.00 h 0 W/m -1.2 C 0.5 C 0.6 km/h (0 Bft)
21.02.2009 06:00 0.6 C 88 % 1030.4 hPa 0.0 l/m 0.0 km/h (0 Bft) N 0.00 h 0 W/m -1.2 C 0.6 C 0.0 km/h (0 Bft)
21.02.2009 07:00 0.4 C 88 % 1030.6 hPa 0.0 l/m 0.0 km/h (0 Bft) N 0.00 h 12 W/m -1.3 C 0.4 C 0.1 km/h (0 Bft)
21.02.2009 08:00 0.8 C 88 % 1031.1 hPa 0.0 l/m 0.0 km/h (0 Bft) N 0.00 h 48 W/m -1.0 C 0.8 C 0.0 km/h (0 Bft)
21.02.2009 09:00 1.4 C 86 % 1031.1 hPa 0.0 l/m 0.1 km/h (0 Bft) O 0.00 h 113 W/m -0.6 C 1.4 C 0.9 km/h (0 Bft)
21.02.2009 10:00 2.7 C 83 % 1031.2 hPa 0.0 l/m 1.0 km/h (0 Bft) N 0.58 h 270 W/m 0.2 C 2.7 C 2.2 km/h (1 Bft)
21.02.2009 11:00 4.3 C 78 % 1031.0 hPa 0.0 l/m 3.2 km/h (1 Bft) N-NW 0.88 h 437 W/m 0.7 C 3.9 C 5.4 km/h (1 Bft)
21.02.2009 12:00 5.4 C 73 % 1030.6 hPa 0.0 l/m 3.0 km/h (1 Bft) N-NW 0.73 h 429 W/m 0.9 C 5.1 C 5.0 km/h (1 Bft)
21.02.2009 13:00 6.8 C 65 % 1030.2 hPa 0.0 l/m 2.2 km/h (1 Bft) N-NW 0.82 h 512 W/m 0.7 C 6.7 C 4.3 km/h (1 Bft)
21.02.2009 14:00 7.3 C 61 % 1030.0 hPa 0.0 l/m 1.7 km/h (1 Bft) W-SW 0.55 h 353 W/m 0.2 C 7.2 C 3.8 km/h (1 Bft)
21.02.2009 15:00 6.2 C 65 % 1030.2 hPa 0.0 l/m 4.0 km/h (1 Bft) W-NW 0.00 h 94 W/m 0.2 C 5.8 C 6.7 km/h (2 Bft)
21.02.2009 16:00 5.3 C 71 % 1030.4 hPa 0.0 l/m 4.1 km/h (1 Bft) W-NW 0.00 h 76 W/m 0.5 C 4.7 C 6.8 km/h (2 Bft)
21.02.2009 17:00 4.6 C 75 % 1030.6 hPa 0.0 l/m 0.8 km/h (0 Bft) NW 0.00 h 13 W/m 0.6 C 4.6 C 2.5 km/h (1 Bft)
21.02.2009 18:00 4.2 C 78 % 1031.1 hPa 0.0 l/m 0.7 km/h (0 Bft) N-NW 0.00 h 0 W/m 0.6 C 4.2 C 2.0 km/h (1 Bft)
21.02.2009 19:00 3.5 C 81 % 1031.2 hPa 0.0 l/m 0.4 km/h (0 Bft) N-NW 0.00 h 0 W/m 0.6 C 3.5 C 1.2 km/h (1 Bft)
21.02.2009 20:00 2.8 C 84 % 1031.4 hPa 0.0 l/m 0.8 km/h (0 Bft) NO 0.00 h 0 W/m 0.3 C 2.8 C 1.2 km/h (1 Bft)
21.02.2009 21:00 2.2 C 87 % 1031.6 hPa 0.0 l/m 2.2 km/h (1 Bft) O-SO 0.00 h 0 W/m 0.3 C 2.0 C 3.4 km/h (1 Bft)
21.02.2009 22:00 2.2 C 87 % 1030.9 hPa 0.0 l/m 1.0 km/h (0 Bft) O-SO 0.00 h 0 W/m 0.3 C 2.2 C 2.0 km/h (1 Bft)
21.02.2009 23:00 1.9 C 88 % 1030.5 hPa 0.0 l/m 1.3 km/h (1 Bft) O-SO 0.00 h 0 W/m 0.2 C 1.8 C 2.0 km/h (1 Bft)
22.02.2009 00:00 1.6 C 90 % 1029.7 hPa 0.0 l/m 0.8 km/h (0 Bft) O-SO 0.00 h 0 W/m 0.1 C 1.6 C 1.6 km/h (1 Bft)
22.02.2009 01:00 1.4 C 91 % 1029.9 hPa 0.0 l/m 0.5 km/h (0 Bft) O-SO 0.00 h 0 W/m 0.0 C 1.4 C 0.8 km/h (0 Bft)
22.02.2009 02:00 1.1 C 92 % 1029.4 hPa 0.0 l/m 1.2 km/h (1 Bft) O-SO 0.00 h 0 W/m -0.0 C 1.1 C 2.2 km/h (1 Bft)
22.02.2009 03:00 1.3 C 92 % 1029.3 hPa 0.0 l/m 0.6 km/h (0 Bft) O-SO 0.00 h 0 W/m 0.2 C 1.3 C 1.4 km/h (1 Bft)
22.02.2009 04:00 1.3 C 93 % 1029.3 hPa 0.8 l/m 0.7 km/h (0 Bft) O-SO 0.00 h 0 W/m 0.3 C 1.3 C 1.4 km/h (1 Bft)
22.02.2009 05:00 0.5 C 96 % 1029.3 hPa 0.6 l/m 1.0 km/h (0 Bft) O-SO 0.00 h 0 W/m -0.1 C 0.5 C 1.9 km/h (1 Bft)
22.02.2009 06:00 0.4 C 97 % 1028.9 hPa 0.4 l/m 0.9 km/h (0 Bft) S-SO 0.00 h 0 W/m 0.0 C 0.4 C 2.0 km/h (1 Bft)
22.02.2009 07:00 0.3 C 98 % 1028.6 hPa 0.8 l/m 0.1 km/h (0 Bft) S-SO 0.00 h 0 W/m 0.1 C 0.3 C 0.3 km/h (0 Bft)
22.02.2009 08:00 0.4 C 99 % 1028.7 hPa 1.8 l/m 0.0 km/h (0 Bft) N 0.00 h 5 W/m 0.3 C 0.4 C 0.0 km/h (0 Bft)
22.02.2009 09:00 0.5 C 99 % 1028.4 hPa 2.4 l/m 0.5 km/h (0 Bft) S 0.00 h 16 W/m 0.3 C 0.5 C 1.5 km/h (1 Bft)
22.02.2009 10:00 0.9 C 99 % 1027.8 hPa 1.8 l/m 3.2 km/h (1 Bft) S-SO 0.00 h 30 W/m 0.7 C 0.5 C 6.1 km/h (2 Bft)
22.02.2009 11:00 1.0 C 99 % 1027.7 hPa 1.4 l/m 4.0 km/h (1 Bft) S 0.00 h 41 W/m 0.9 C 0.3 C 7.3 km/h (2 Bft)
22.02.2009 12:00 1.5 C 98 % 1026.8 hPa 1.2 l/m 3.6 km/h (1 Bft) S 0.00 h 86 W/m 1.3 C 1.1 C 6.9 km/h (2 Bft)
22.02.2009 13:00 1.9 C 97 % 1026.4 hPa 0.4 l/m 3.2 km/h (1 Bft) SW 0.00 h 96 W/m 1.4 C 1.5 C 5.9 km/h (2 Bft)
22.02.2009 14:00 2.1 C 95 % 1026.2 hPa 0.2 l/m 3.7 km/h (1 Bft) SW 0.00 h 67 W/m 1.4 C 1.5 C 6.6 km/h (2 Bft)
22.02.2009 15:00 2.1 C 94 % 1025.5 hPa 0.0 l/m 2.9 km/h (1 Bft) S 0.00 h 35 W/m 1.3 C 1.8 C 5.2 km/h (1 Bft)
22.02.2009 16:00 2.0 C 94 % 1025.4 hPa 0.0 l/m 2.9 km/h (1 Bft) W-SW 0.00 h 19 W/m 1.2 C 1.7 C 4.9 km/h (1 Bft)
22.02.2009 17:00 1.8 C 95 % 1025.0 hPa 0.0 l/m 2.2 km/h (1 Bft) S 0.00 h 7 W/m 1.2 C 1.8 C 4.2 km/h (1 Bft)
22.02.2009 18:00 1.9 C 96 % 1024.8 hPa 0.0 l/m 1.8 km/h (1 Bft) S-SW 0.00 h 0 W/m 1.4 C 1.9 C 3.8 km/h (1 Bft)
22.02.2009 19:00 2.1 C 97 % 1024.7 hPa 0.0 l/m 2.3 km/h (1 Bft) S-SW 0.00 h 0 W/m 1.7 C 2.0 C 4.6 km/h (1 Bft)
22.02.2009 20:00 2.2 C 97 % 1024.4 hPa 0.0 l/m 1.9 km/h (1 Bft) S-SW 0.00 h 0 W/m 1.8 C 2.1 C 3.9 km/h (1 Bft)
22.02.2009 21:00 1.8 C 97 % 1024.4 hPa 0.0 l/m 2.3 km/h (1 Bft) SW 0.00 h 0 W/m 1.4 C 1.7 C 4.8 km/h (1 Bft)
22.02.2009 22:00 1.8 C 98 % 1024.1 hPa 0.0 l/m 1.7 km/h (1 Bft) S 0.00 h 0 W/m 1.5 C 1.8 C 3.8 km/h (1 Bft)
22.02.2009 23:00 2.0 C 98 % 1023.6 hPa 0.0 l/m 1.4 km/h (1 Bft) S-SW 0.00 h 0 W/m 1.7 C 2.0 C 3.3 km/h (1 Bft)
Min-Datum _ 19.02.09 19.02.09 17.02.09 - 16.02.09 - - - 19.02.09 19.02.09 16.02.09
_ Min-Zeit 06:00 16:10 14:45 - 00:01 - - - 07:58 07:23 02:14
Minimum _ -9.9 C 47 % 1018.5 hPa - 0.0 km/h (0 Bft) - - - -11.9 C -13.4 C 0.0 km/h (0 Bft)
Max-Datum _ 21.02.09 17.02.09 20.02.09 22.02.09 17.02.09 - 16.02.09 21.02.09 17.02.09 21.02.09 17.02.09
_ Max-Zeit 14:27 05:38 11:00 09:04 14:30 - 07:42 13:21 13:52 14:27 14:45
Maximum _ 8.2 C 100 % 1032.4 hPa 2.4 l/m 19.1 km/h
W (3 Bft)
- 0.02 h 671 W/m 2.2 C 8.2 C 33.0 km/h
W-SW (5 Bft)
Durchschnitt _ -0.9 C 82 % 1027.1 hPa #15.8 l/m 2.3 km/h (1 Bft) O-SO #23:31 h 152 W/m -3.7 C -1.2 C 4.4 km/h (1 Bft)
© Kaiko 2009